sensor_id;sensor_type;location;lat;lon;timestamp;P1;durP1;ratioP1;P2;durP2;ratioP2
51288;SDS011;37372;52.294;5.152;2022-07-23T00:01:14;6.18;;;2.45;;
51288;SDS011;37372;52.294;5.152;2022-07-23T00:03:39;3.70;;;2.50;;
51288;SDS011;37372;52.294;5.152;2022-07-23T00:06:05;7.93;;;2.97;;
51288;SDS011;37372;52.294;5.152;2022-07-23T00:08:30;4.78;;;2.85;;
51288;SDS011;37372;52.294;5.152;2022-07-23T00:10:55;4.03;;;2.17;;
51288;SDS011;37372;52.294;5.152;2022-07-23T00:13:21;5.60;;;2.58;;
51288;SDS011;37372;52.294;5.152;2022-07-23T00:15:46;3.85;;;2.30;;
51288;SDS011;37372;52.294;5.152;2022-07-23T00:18:11;5.22;;;2.67;;
51288;SDS011;37372;52.294;5.152;2022-07-23T00:20:37;4.30;;;2.35;;
51288;SDS011;37372;52.294;5.152;2022-07-23T00:23:02;6.68;;;3.00;;
51288;SDS011;37372;52.294;5.152;2022-07-23T00:25:27;5.25;;;2.63;;
51288;SDS011;37372;52.294;5.152;2022-07-23T00:27:53;5.60;;;2.90;;
51288;SDS011;37372;52.294;5.152;2022-07-23T00:30:18;6.20;;;2.50;;
51288;SDS011;37372;52.294;5.152;2022-07-23T00:35:19;5.45;;;2.88;;
51288;SDS011;37372;52.294;5.152;2022-07-23T00:37:45;6.35;;;2.47;;
51288;SDS011;37372;52.294;5.152;2022-07-23T00:40:11;4.47;;;2.95;;
51288;SDS011;37372;52.294;5.152;2022-07-23T00:42:36;5.28;;;2.70;;
51288;SDS011;37372;52.294;5.152;2022-07-23T00:45:02;6.05;;;2.95;;
51288;SDS011;37372;52.294;5.152;2022-07-23T00:47:28;4.50;;;2.30;;
51288;SDS011;37372;52.294;5.152;2022-07-23T00:49:53;7.88;;;2.22;;
51288;SDS011;37372;52.294;5.152;2022-07-23T00:52:19;6.78;;;2.13;;
51288;SDS011;37372;52.294;5.152;2022-07-23T00:54:44;4.50;;;1.92;;
51288;SDS011;37372;52.294;5.152;2022-07-23T00:57:09;5.20;;;2.42;;
51288;SDS011;37372;52.294;5.152;2022-07-23T00:59:35;7.40;;;2.83;;
51288;SDS011;37372;52.294;5.152;2022-07-23T01:02:00;4.95;;;2.75;;
51288;SDS011;37372;52.294;5.152;2022-07-23T01:04:25;5.10;;;2.60;;
51288;SDS011;37372;52.294;5.152;2022-07-23T01:06:51;3.97;;;2.70;;
51288;SDS011;37372;52.294;5.152;2022-07-23T01:09:17;5.47;;;3.28;;
51288;SDS011;37372;52.294;5.152;2022-07-23T01:11:42;6.22;;;2.90;;
51288;SDS011;37372;52.294;5.152;2022-07-23T01:14:18;6.45;;;3.30;;
51288;SDS011;37372;52.294;5.152;2022-07-23T01:16:44;6.60;;;2.97;;
51288;SDS011;37372;52.294;5.152;2022-07-23T01:19:11;6.75;;;3.00;;
51288;SDS011;37372;52.294;5.152;2022-07-23T01:21:39;4.72;;;2.58;;
51288;SDS011;37372;52.294;5.152;2022-07-23T01:24:06;4.88;;;2.85;;
51288;SDS011;37372;52.294;5.152;2022-07-23T01:26:32;3.55;;;2.38;;
51288;SDS011;37372;52.294;5.152;2022-07-23T01:28:57;5.25;;;3.13;;
51288;SDS011;37372;52.294;5.152;2022-07-23T01:31:23;6.18;;;2.75;;
51288;SDS011;37372;52.294;5.152;2022-07-23T01:33:49;4.28;;;3.28;;
51288;SDS011;37372;52.294;5.152;2022-07-23T01:36:14;6.53;;;2.72;;
51288;SDS011;37372;52.294;5.152;2022-07-23T01:38:39;4.63;;;3.10;;
51288;SDS011;37372;52.294;5.152;2022-07-23T01:41:05;5.82;;;2.95;;
51288;SDS011;37372;52.294;5.152;2022-07-23T01:43:30;4.70;;;2.78;;
51288;SDS011;37372;52.294;5.152;2022-07-23T01:45:55;5.25;;;2.53;;
51288;SDS011;37372;52.294;5.152;2022-07-23T01:48:21;5.20;;;2.47;;
51288;SDS011;37372;52.294;5.152;2022-07-23T01:50:47;4.05;;;2.13;;
51288;SDS011;37372;52.294;5.152;2022-07-23T01:53:12;3.47;;;2.55;;
51288;SDS011;37372;52.294;5.152;2022-07-23T01:55:38;4.00;;;2.63;;
51288;SDS011;37372;52.294;5.152;2022-07-23T01:58:04;6.07;;;2.55;;
51288;SDS011;37372;52.294;5.152;2022-07-23T02:00:30;4.32;;;2.45;;
51288;SDS011;37372;52.294;5.152;2022-07-23T02:02:55;6.20;;;2.95;;
51288;SDS011;37372;52.294;5.152;2022-07-23T02:05:23;3.33;;;2.05;;
51288;SDS011;37372;52.294;5.152;2022-07-23T02:07:48;3.85;;;2.40;;
51288;SDS011;37372;52.294;5.152;2022-07-23T02:10:13;5.72;;;3.03;;
51288;SDS011;37372;52.294;5.152;2022-07-23T02:12:39;3.55;;;2.20;;
51288;SDS011;37372;52.294;5.152;2022-07-23T02:15:04;5.80;;;2.28;;
51288;SDS011;37372;52.294;5.152;2022-07-23T02:17:30;5.03;;;1.80;;
51288;SDS011;37372;52.294;5.152;2022-07-23T02:19:55;4.40;;;2.30;;
51288;SDS011;37372;52.294;5.152;2022-07-23T02:22:21;5.68;;;2.33;;
51288;SDS011;37372;52.294;5.152;2022-07-23T02:24:46;6.63;;;2.28;;
51288;SDS011;37372;52.294;5.152;2022-07-23T02:27:11;6.07;;;2.53;;
51288;SDS011;37372;52.294;5.152;2022-07-23T02:29:37;3.95;;;2.30;;
51288;SDS011;37372;52.294;5.152;2022-07-23T02:32:02;4.32;;;2.95;;
51288;SDS011;37372;52.294;5.152;2022-07-23T02:34:27;3.30;;;1.80;;
51288;SDS011;37372;52.294;5.152;2022-07-23T02:36:53;4.65;;;2.42;;
51288;SDS011;37372;52.294;5.152;2022-07-23T02:39:18;5.10;;;2.28;;
51288;SDS011;37372;52.294;5.152;2022-07-23T02:41:43;4.85;;;2.55;;
51288;SDS011;37372;52.294;5.152;2022-07-23T02:44:09;6.13;;;2.53;;
51288;SDS011;37372;52.294;5.152;2022-07-23T02:46:34;4.68;;;2.42;;
51288;SDS011;37372;52.294;5.152;2022-07-23T02:48:59;5.00;;;2.33;;
51288;SDS011;37372;52.294;5.152;2022-07-23T02:51:24;7.53;;;2.85;;
51288;SDS011;37372;52.294;5.152;2022-07-23T02:53:50;4.13;;;2.90;;
51288;SDS011;37372;52.294;5.152;2022-07-23T02:56:15;3.90;;;2.80;;
51288;SDS011;37372;52.294;5.152;2022-07-23T02:58:41;4.28;;;2.78;;
51288;SDS011;37372;52.294;5.152;2022-07-23T03:01:06;3.85;;;2.78;;
51288;SDS011;37372;52.294;5.152;2022-07-23T03:03:31;5.80;;;3.15;;
51288;SDS011;37372;52.294;5.152;2022-07-23T03:05:57;3.75;;;2.92;;
51288;SDS011;37372;52.294;5.152;2022-07-23T03:08:23;2.97;;;2.25;;
51288;SDS011;37372;52.294;5.152;2022-07-23T03:10:48;5.57;;;2.65;;
51288;SDS011;37372;52.294;5.152;2022-07-23T03:13:13;7.15;;;3.33;;
51288;SDS011;37372;52.294;5.152;2022-07-23T03:15:39;3.90;;;3.05;;
51288;SDS011;37372;52.294;5.152;2022-07-23T03:18:04;7.95;;;3.33;;
51288;SDS011;37372;52.294;5.152;2022-07-23T03:20:29;4.82;;;2.88;;
51288;SDS011;37372;52.294;5.152;2022-07-23T03:22:55;12.95;;;4.47;;
51288;SDS011;37372;52.294;5.152;2022-07-23T03:25:20;7.70;;;4.18;;
51288;SDS011;37372;52.294;5.152;2022-07-23T03:27:45;10.23;;;4.13;;
51288;SDS011;37372;52.294;5.152;2022-07-23T03:30:11;8.32;;;4.25;;
51288;SDS011;37372;52.294;5.152;2022-07-23T03:32:37;8.07;;;4.28;;
51288;SDS011;37372;52.294;5.152;2022-07-23T03:35:02;8.80;;;4.32;;
51288;SDS011;37372;52.294;5.152;2022-07-23T03:37:28;7.75;;;4.53;;
51288;SDS011;37372;52.294;5.152;2022-07-23T03:39:53;8.40;;;4.45;;
51288;SDS011;37372;52.294;5.152;2022-07-23T03:42:19;8.35;;;4.68;;
51288;SDS011;37372;52.294;5.152;2022-07-23T03:44:44;10.68;;;5.10;;
51288;SDS011;37372;52.294;5.152;2022-07-23T03:47:09;12.95;;;4.07;;
51288;SDS011;37372;52.294;5.152;2022-07-23T03:49:35;5.00;;;4.05;;
51288;SDS011;37372;52.294;5.152;2022-07-23T03:52:00;6.28;;;3.97;;
51288;SDS011;37372;52.294;5.152;2022-07-23T03:54:26;7.97;;;4.28;;
51288;SDS011;37372;52.294;5.152;2022-07-23T03:56:51;6.72;;;4.32;;
51288;SDS011;37372;52.294;5.152;2022-07-23T03:59:16;8.82;;;4.15;;
51288;SDS011;37372;52.294;5.152;2022-07-23T04:01:41;7.03;;;4.18;;
51288;SDS011;37372;52.294;5.152;2022-07-23T04:04:07;7.57;;;4.38;;
51288;SDS011;37372;52.294;5.152;2022-07-23T04:06:33;8.93;;;4.65;;
51288;SDS011;37372;52.294;5.152;2022-07-23T04:08:59;5.53;;;3.92;;
51288;SDS011;37372;52.294;5.152;2022-07-23T04:11:24;7.55;;;4.82;;
51288;SDS011;37372;52.294;5.152;2022-07-23T04:13:49;5.38;;;3.53;;
51288;SDS011;37372;52.294;5.152;2022-07-23T04:16:15;6.05;;;4.25;;
51288;SDS011;37372;52.294;5.152;2022-07-23T04:18:40;8.90;;;4.45;;
51288;SDS011;37372;52.294;5.152;2022-07-23T04:21:05;10.05;;;4.78;;
51288;SDS011;37372;52.294;5.152;2022-07-23T04:23:31;6.70;;;4.25;;
51288;SDS011;37372;52.294;5.152;2022-07-23T04:25:56;8.88;;;4.55;;
51288;SDS011;37372;52.294;5.152;2022-07-23T04:28:21;5.72;;;4.45;;
51288;SDS011;37372;52.294;5.152;2022-07-23T04:30:47;7.82;;;4.05;;
51288;SDS011;37372;52.294;5.152;2022-07-23T04:33:12;6.68;;;3.60;;
51288;SDS011;37372;52.294;5.152;2022-07-23T04:35:38;7.18;;;4.07;;
51288;SDS011;37372;52.294;5.152;2022-07-23T04:38:03;5.32;;;3.03;;
51288;SDS011;37372;52.294;5.152;2022-07-23T04:40:29;6.75;;;3.47;;
51288;SDS011;37372;52.294;5.152;2022-07-23T04:42:55;6.20;;;3.42;;
51288;SDS011;37372;52.294;5.152;2022-07-23T04:45:21;6.13;;;3.30;;
51288;SDS011;37372;52.294;5.152;2022-07-23T04:47:48;8.90;;;3.63;;
51288;SDS011;37372;52.294;5.152;2022-07-23T04:50:14;5.72;;;3.45;;
51288;SDS011;37372;52.294;5.152;2022-07-23T04:52:43;4.75;;;3.05;;
51288;SDS011;37372;52.294;5.152;2022-07-23T04:55:09;7.00;;;3.00;;
51288;SDS011;37372;52.294;5.152;2022-07-23T04:57:34;5.18;;;3.47;;
51288;SDS011;37372;52.294;5.152;2022-07-23T05:00:00;5.80;;;2.95;;
51288;SDS011;37372;52.294;5.152;2022-07-23T05:02:25;7.30;;;3.10;;
51288;SDS011;37372;52.294;5.152;2022-07-23T05:04:50;6.60;;;3.63;;
51288;SDS011;37372;52.294;5.152;2022-07-23T05:07:15;5.70;;;3.72;;
51288;SDS011;37372;52.294;5.152;2022-07-23T05:09:41;6.00;;;3.67;;
51288;SDS011;37372;52.294;5.152;2022-07-23T05:12:06;7.38;;;3.63;;
51288;SDS011;37372;52.294;5.152;2022-07-23T05:14:32;6.38;;;3.05;;
51288;SDS011;37372;52.294;5.152;2022-07-23T05:16:57;9.02;;;3.85;;
51288;SDS011;37372;52.294;5.152;2022-07-23T05:19:23;7.50;;;3.08;;
51288;SDS011;37372;52.294;5.152;2022-07-23T05:21:48;8.75;;;3.17;;
51288;SDS011;37372;52.294;5.152;2022-07-23T05:24:14;7.22;;;3.17;;
51288;SDS011;37372;52.294;5.152;2022-07-23T05:26:39;6.10;;;2.30;;
51288;SDS011;37372;52.294;5.152;2022-07-23T05:29:04;8.27;;;2.42;;
51288;SDS011;37372;52.294;5.152;2022-07-23T05:31:29;4.35;;;1.90;;
51288;SDS011;37372;52.294;5.152;2022-07-23T05:33:55;4.53;;;2.35;;
51288;SDS011;37372;52.294;5.152;2022-07-23T05:36:20;5.18;;;1.70;;
51288;SDS011;37372;52.294;5.152;2022-07-23T05:38:45;7.85;;;2.42;;
51288;SDS011;37372;52.294;5.152;2022-07-23T05:41:11;4.53;;;1.70;;
51288;SDS011;37372;52.294;5.152;2022-07-23T05:43:36;4.85;;;1.60;;
51288;SDS011;37372;52.294;5.152;2022-07-23T05:46:01;3.03;;;1.48;;
51288;SDS011;37372;52.294;5.152;2022-07-23T05:48:27;3.60;;;1.45;;
51288;SDS011;37372;52.294;5.152;2022-07-23T05:50:52;3.78;;;1.83;;
51288;SDS011;37372;52.294;5.152;2022-07-23T05:53:17;3.17;;;1.45;;
51288;SDS011;37372;52.294;5.152;2022-07-23T05:55:43;5.93;;;1.20;;
51288;SDS011;37372;52.294;5.152;2022-07-23T05:58:08;4.22;;;1.55;;
51288;SDS011;37372;52.294;5.152;2022-07-23T06:00:34;3.08;;;1.38;;
51288;SDS011;37372;52.294;5.152;2022-07-23T06:02:59;3.22;;;1.33;;
51288;SDS011;37372;52.294;5.152;2022-07-23T06:05:24;2.38;;;1.20;;
51288;SDS011;37372;52.294;5.152;2022-07-23T06:07:50;2.17;;;1.17;;
51288;SDS011;37372;52.294;5.152;2022-07-23T06:10:15;3.72;;;1.27;;
51288;SDS011;37372;52.294;5.152;2022-07-23T06:12:41;3.45;;;0.98;;
51288;SDS011;37372;52.294;5.152;2022-07-23T06:15:06;2.60;;;1.50;;
51288;SDS011;37372;52.294;5.152;2022-07-23T06:17:33;2.40;;;1.08;;
51288;SDS011;37372;52.294;5.152;2022-07-23T06:19:58;1.17;;;0.90;;
51288;SDS011;37372;52.294;5.152;2022-07-23T06:22:23;3.70;;;1.30;;
51288;SDS011;37372;52.294;5.152;2022-07-23T06:24:49;4.40;;;1.23;;
51288;SDS011;37372;52.294;5.152;2022-07-23T06:27:16;7.00;;;1.38;;
51288;SDS011;37372;52.294;5.152;2022-07-23T06:29:42;2.03;;;1.23;;
51288;SDS011;37372;52.294;5.152;2022-07-23T06:32:07;2.65;;;1.27;;
51288;SDS011;37372;52.294;5.152;2022-07-23T06:34:33;2.22;;;0.90;;
51288;SDS011;37372;52.294;5.152;2022-07-23T06:36:59;2.42;;;1.05;;
51288;SDS011;37372;52.294;5.152;2022-07-23T06:39:25;2.28;;;1.00;;
51288;SDS011;37372;52.294;5.152;2022-07-23T06:41:50;3.33;;;1.00;;
51288;SDS011;37372;52.294;5.152;2022-07-23T06:44:16;6.60;;;1.33;;
51288;SDS011;37372;52.294;5.152;2022-07-23T06:46:41;2.42;;;0.80;;
51288;SDS011;37372;52.294;5.152;2022-07-23T06:49:06;1.08;;;0.50;;
51288;SDS011;37372;52.294;5.152;2022-07-23T06:51:32;3.72;;;0.95;;
51288;SDS011;37372;52.294;5.152;2022-07-23T06:53:57;2.28;;;0.80;;
51288;SDS011;37372;52.294;5.152;2022-07-23T06:56:23;2.13;;;0.75;;
51288;SDS011;37372;52.294;5.152;2022-07-23T06:58:48;3.45;;;0.80;;
51288;SDS011;37372;52.294;5.152;2022-07-23T07:01:14;4.20;;;0.98;;
51288;SDS011;37372;52.294;5.152;2022-07-23T07:03:39;4.22;;;0.85;;
51288;SDS011;37372;52.294;5.152;2022-07-23T07:06:04;2.80;;;0.80;;
51288;SDS011;37372;52.294;5.152;2022-07-23T07:08:30;1.95;;;0.80;;
51288;SDS011;37372;52.294;5.152;2022-07-23T07:10:55;4.32;;;1.00;;
51288;SDS011;37372;52.294;5.152;2022-07-23T07:13:20;2.83;;;1.02;;
51288;SDS011;37372;52.294;5.152;2022-07-23T07:15:46;2.10;;;0.95;;
51288;SDS011;37372;52.294;5.152;2022-07-23T07:18:11;1.77;;;0.63;;
51288;SDS011;37372;52.294;5.152;2022-07-23T07:20:37;1.63;;;1.00;;
51288;SDS011;37372;52.294;5.152;2022-07-23T07:23:02;2.55;;;0.95;;
51288;SDS011;37372;52.294;5.152;2022-07-23T07:25:27;1.65;;;0.90;;
51288;SDS011;37372;52.294;5.152;2022-07-23T07:27:53;4.45;;;1.38;;
51288;SDS011;37372;52.294;5.152;2022-07-23T07:30:18;3.60;;;1.40;;
51288;SDS011;37372;52.294;5.152;2022-07-23T07:32:44;2.17;;;0.80;;
51288;SDS011;37372;52.294;5.152;2022-07-23T07:35:09;2.30;;;0.90;;
51288;SDS011;37372;52.294;5.152;2022-07-23T07:37:34;1.80;;;0.68;;
51288;SDS011;37372;52.294;5.152;2022-07-23T07:40:00;4.25;;;0.80;;
51288;SDS011;37372;52.294;5.152;2022-07-23T07:42:25;3.67;;;0.80;;
51288;SDS011;37372;52.294;5.152;2022-07-23T07:44:51;3.53;;;0.90;;
51288;SDS011;37372;52.294;5.152;2022-07-23T07:47:17;4.35;;;0.90;;
51288;SDS011;37372;52.294;5.152;2022-07-23T07:49:42;4.40;;;0.90;;
51288;SDS011;37372;52.294;5.152;2022-07-23T07:52:08;1.85;;;0.65;;
51288;SDS011;37372;52.294;5.152;2022-07-23T07:54:33;2.15;;;0.88;;
51288;SDS011;37372;52.294;5.152;2022-07-23T07:56:59;2.55;;;0.90;;
51288;SDS011;37372;52.294;5.152;2022-07-23T07:59:24;1.88;;;0.73;;
51288;SDS011;37372;52.294;5.152;2022-07-23T08:01:50;4.03;;;1.50;;
51288;SDS011;37372;52.294;5.152;2022-07-23T08:04:15;3.63;;;1.65;;
51288;SDS011;37372;52.294;5.152;2022-07-23T08:06:41;3.25;;;0.85;;
51288;SDS011;37372;52.294;5.152;2022-07-23T08:09:06;2.70;;;0.90;;
51288;SDS011;37372;52.294;5.152;2022-07-23T08:11:31;1.85;;;0.98;;
51288;SDS011;37372;52.294;5.152;2022-07-23T08:13:56;4.60;;;1.00;;
51288;SDS011;37372;52.294;5.152;2022-07-23T08:16:22;3.65;;;1.27;;
51288;SDS011;37372;52.294;5.152;2022-07-23T08:18:47;2.95;;;1.15;;
51288;SDS011;37372;52.294;5.152;2022-07-23T08:21:13;4.65;;;1.20;;
51288;SDS011;37372;52.294;5.152;2022-07-23T08:23:38;5.05;;;0.80;;
51288;SDS011;37372;52.294;5.152;2022-07-23T08:26:03;1.23;;;0.73;;
51288;SDS011;37372;52.294;5.152;2022-07-23T08:28:29;2.60;;;0.80;;
51288;SDS011;37372;52.294;5.152;2022-07-23T08:30:57;2.05;;;0.88;;
51288;SDS011;37372;52.294;5.152;2022-07-23T08:33:23;2.40;;;1.02;;
51288;SDS011;37372;52.294;5.152;2022-07-23T08:35:49;2.95;;;1.13;;
51288;SDS011;37372;52.294;5.152;2022-07-23T08:38:18;3.92;;;1.38;;
51288;SDS011;37372;52.294;5.152;2022-07-23T08:40:46;4.13;;;1.40;;
51288;SDS011;37372;52.294;5.152;2022-07-23T08:43:14;2.05;;;0.80;;
51288;SDS011;37372;52.294;5.152;2022-07-23T08:45:44;5.70;;;0.80;;
51288;SDS011;37372;52.294;5.152;2022-07-23T08:48:13;4.40;;;0.95;;
51288;SDS011;37372;52.294;5.152;2022-07-23T08:50:44;3.22;;;0.90;;
51288;SDS011;37372;52.294;5.152;2022-07-23T08:53:11;2.45;;;0.70;;
51288;SDS011;37372;52.294;5.152;2022-07-23T08:55:37;2.33;;;0.77;;
51288;SDS011;37372;52.294;5.152;2022-07-23T08:58:03;4.30;;;1.50;;
51288;SDS011;37372;52.294;5.152;2022-07-23T09:00:29;4.13;;;1.00;;
51288;SDS011;37372;52.294;5.152;2022-07-23T09:02:55;2.25;;;0.70;;
51288;SDS011;37372;52.294;5.152;2022-07-23T09:05:20;2.97;;;1.02;;
51288;SDS011;37372;52.294;5.152;2022-07-23T09:10:48;3.10;;;0.80;;
51288;SDS011;37372;52.294;5.152;2022-07-23T09:21:19;2.58;;;0.70;;
51288;SDS011;37372;52.294;5.152;2022-07-23T09:28:59;2.25;;;0.70;;
51288;SDS011;37372;52.294;5.152;2022-07-23T09:31:31;2.55;;;0.80;;
51288;SDS011;37372;52.294;5.152;2022-07-23T09:34:08;3.58;;;1.10;;
51288;SDS011;37372;52.294;5.152;2022-07-23T09:36:34;3.15;;;0.70;;
51288;SDS011;37372;52.294;5.152;2022-07-23T09:39:00;1.70;;;0.95;;
51288;SDS011;37372;52.294;5.152;2022-07-23T09:41:26;3.70;;;0.73;;
51288;SDS011;37372;52.294;5.152;2022-07-23T09:44:05;1.98;;;0.80;;
51288;SDS011;37372;52.294;5.152;2022-07-23T09:46:31;3.45;;;0.82;;
51288;SDS011;37372;52.294;5.152;2022-07-23T09:48:57;4.70;;;0.90;;
51288;SDS011;37372;52.294;5.152;2022-07-23T09:51:23;1.85;;;0.85;;
51288;SDS011;37372;52.294;5.152;2022-07-23T09:54:01;3.40;;;1.15;;
51288;SDS011;37372;52.294;5.152;2022-07-23T09:56:27;6.30;;;1.08;;
51288;SDS011;37372;52.294;5.152;2022-07-23T09:58:53;2.50;;;1.13;;
51288;SDS011;37372;52.294;5.152;2022-07-23T10:01:30;2.38;;;0.90;;
51288;SDS011;37372;52.294;5.152;2022-07-23T10:03:56;3.78;;;0.90;;
51288;SDS011;37372;52.294;5.152;2022-07-23T10:06:23;2.83;;;0.75;;
51288;SDS011;37372;52.294;5.152;2022-07-23T10:08:48;1.30;;;0.65;;
51288;SDS011;37372;52.294;5.152;2022-07-23T10:11:16;3.40;;;0.85;;
51288;SDS011;37372;52.294;5.152;2022-07-23T10:13:43;5.07;;;0.85;;
51288;SDS011;37372;52.294;5.152;2022-07-23T10:16:12;2.70;;;1.00;;
51288;SDS011;37372;52.294;5.152;2022-07-23T10:18:37;5.13;;;1.67;;
51288;SDS011;37372;52.294;5.152;2022-07-23T10:21:05;1.75;;;0.60;;
51288;SDS011;37372;52.294;5.152;2022-07-23T10:23:33;1.58;;;0.60;;
51288;SDS011;37372;52.294;5.152;2022-07-23T10:26:05;2.00;;;0.70;;
51288;SDS011;37372;52.294;5.152;2022-07-23T10:28:46;1.60;;;0.70;;
51288;SDS011;37372;52.294;5.152;2022-07-23T10:31:56;1.55;;;0.60;;
51288;SDS011;37372;52.294;5.152;2022-07-23T10:42:36;3.05;;;0.95;;
51288;SDS011;37372;52.294;5.152;2022-07-23T10:45:09;1.52;;;0.70;;
51288;SDS011;37372;52.294;5.152;2022-07-23T10:47:48;4.53;;;1.85;;
51288;SDS011;37372;52.294;5.152;2022-07-23T10:50:19;1.38;;;0.65;;
51288;SDS011;37372;52.294;5.152;2022-07-23T10:55:47;3.30;;;0.90;;
51288;SDS011;37372;52.294;5.152;2022-07-23T10:58:19;1.88;;;0.80;;
51288;SDS011;37372;52.294;5.152;2022-07-23T11:04:02;5.80;;;1.23;;
51288;SDS011;37372;52.294;5.152;2022-07-23T11:17:38;4.63;;;1.05;;
51288;SDS011;37372;52.294;5.152;2022-07-23T11:20:17;3.30;;;1.15;;
51288;SDS011;37372;52.294;5.152;2022-07-23T11:25:13;3.70;;;0.97;;
51288;SDS011;37372;52.294;5.152;2022-07-23T11:27:53;3.40;;;1.48;;
51288;SDS011;37372;52.294;5.152;2022-07-23T11:32:54;3.28;;;0.95;;
51288;SDS011;37372;52.294;5.152;2022-07-23T11:35:47;3.22;;;1.10;;
51288;SDS011;37372;52.294;5.152;2022-07-23T11:40:46;2.17;;;1.02;;
51288;SDS011;37372;52.294;5.152;2022-07-23T11:43:14;2.42;;;1.15;;
51288;SDS011;37372;52.294;5.152;2022-07-23T11:45:42;1.70;;;0.90;;
51288;SDS011;37372;52.294;5.152;2022-07-23T11:48:31;2.53;;;1.25;;
51288;SDS011;37372;52.294;5.152;2022-07-23T11:50:56;3.45;;;1.60;;
51288;SDS011;37372;52.294;5.152;2022-07-23T11:53:22;3.75;;;1.60;;
51288;SDS011;37372;52.294;5.152;2022-07-23T11:55:49;5.47;;;1.90;;
51288;SDS011;37372;52.294;5.152;2022-07-23T11:58:15;2.58;;;1.17;;
51288;SDS011;37372;52.294;5.152;2022-07-23T12:00:40;3.10;;;1.58;;
51288;SDS011;37372;52.294;5.152;2022-07-23T12:03:06;2.97;;;1.23;;
51288;SDS011;37372;52.294;5.152;2022-07-23T12:05:33;2.63;;;1.60;;
51288;SDS011;37372;52.294;5.152;2022-07-23T12:08:00;4.03;;;2.00;;
51288;SDS011;37372;52.294;5.152;2022-07-23T12:10:37;2.78;;;1.52;;
51288;SDS011;37372;52.294;5.152;2022-07-23T12:13:07;4.55;;;1.25;;
51288;SDS011;37372;52.294;5.152;2022-07-23T12:15:39;3.33;;;1.17;;
51288;SDS011;37372;52.294;5.152;2022-07-23T12:18:07;5.45;;;1.20;;
51288;SDS011;37372;52.294;5.152;2022-07-23T12:20:44;5.45;;;1.13;;
51288;SDS011;37372;52.294;5.152;2022-07-23T12:23:12;3.13;;;1.40;;
51288;SDS011;37372;52.294;5.152;2022-07-23T12:25:39;3.38;;;1.40;;
51288;SDS011;37372;52.294;5.152;2022-07-23T12:28:11;3.20;;;1.52;;
51288;SDS011;37372;52.294;5.152;2022-07-23T12:30:40;2.97;;;1.27;;
51288;SDS011;37372;52.294;5.152;2022-07-23T12:33:22;2.92;;;1.55;;
51288;SDS011;37372;52.294;5.152;2022-07-23T12:35:49;4.07;;;1.30;;
51288;SDS011;37372;52.294;5.152;2022-07-23T12:38:15;4.40;;;1.52;;
51288;SDS011;37372;52.294;5.152;2022-07-23T12:40:46;3.05;;;1.10;;
51288;SDS011;37372;52.294;5.152;2022-07-23T12:43:20;6.13;;;1.52;;
51288;SDS011;37372;52.294;5.152;2022-07-23T12:45:51;3.20;;;1.20;;
51288;SDS011;37372;52.294;5.152;2022-07-23T12:50:57;2.03;;;1.10;;
51288;SDS011;37372;52.294;5.152;2022-07-23T12:53:32;3.55;;;1.50;;
51288;SDS011;37372;52.294;5.152;2022-07-23T12:56:03;3.65;;;1.58;;
51288;SDS011;37372;52.294;5.152;2022-07-23T13:01:23;2.58;;;1.42;;
51288;SDS011;37372;52.294;5.152;2022-07-23T13:06:36;3.30;;;2.00;;
51288;SDS011;37372;52.294;5.152;2022-07-23T13:09:29;2.85;;;1.52;;
51288;SDS011;37372;52.294;5.152;2022-07-23T13:11:56;2.38;;;1.30;;
51288;SDS011;37372;52.294;5.152;2022-07-23T13:14:21;3.42;;;1.90;;
51288;SDS011;37372;52.294;5.152;2022-07-23T13:16:48;4.55;;;1.80;;
51288;SDS011;37372;52.294;5.152;2022-07-23T13:19:14;4.60;;;1.85;;
51288;SDS011;37372;52.294;5.152;2022-07-23T13:21:40;2.63;;;1.15;;
51288;SDS011;37372;52.294;5.152;2022-07-23T13:24:06;2.88;;;1.55;;
51288;SDS011;37372;52.294;5.152;2022-07-23T13:26:33;4.05;;;1.77;;
51288;SDS011;37372;52.294;5.152;2022-07-23T13:28:59;5.28;;;1.40;;
51288;SDS011;37372;52.294;5.152;2022-07-23T13:31:24;4.82;;;1.83;;
51288;SDS011;37372;52.294;5.152;2022-07-23T13:33:50;3.92;;;1.98;;
51288;SDS011;37372;52.294;5.152;2022-07-23T13:36:15;3.75;;;1.65;;
51288;SDS011;37372;52.294;5.152;2022-07-23T13:38:41;5.13;;;2.03;;
51288;SDS011;37372;52.294;5.152;2022-07-23T13:41:06;3.60;;;1.90;;
51288;SDS011;37372;52.294;5.152;2022-07-23T13:43:31;4.63;;;1.67;;
51288;SDS011;37372;52.294;5.152;2022-07-23T13:45:57;3.95;;;1.90;;
51288;SDS011;37372;52.294;5.152;2022-07-23T13:48:23;3.00;;;1.33;;
51288;SDS011;37372;52.294;5.152;2022-07-23T13:50:48;3.63;;;1.90;;
51288;SDS011;37372;52.294;5.152;2022-07-23T13:53:16;2.97;;;2.15;;
51288;SDS011;37372;52.294;5.152;2022-07-23T13:55:46;4.35;;;1.98;;
51288;SDS011;37372;52.294;5.152;2022-07-23T13:58:12;5.97;;;2.60;;
51288;SDS011;37372;52.294;5.152;2022-07-23T14:00:41;4.15;;;1.98;;
51288;SDS011;37372;52.294;5.152;2022-07-23T14:03:08;4.00;;;1.80;;
51288;SDS011;37372;52.294;5.152;2022-07-23T14:05:34;3.42;;;1.77;;
51288;SDS011;37372;52.294;5.152;2022-07-23T14:08:00;5.88;;;2.22;;
51288;SDS011;37372;52.294;5.152;2022-07-23T14:10:25;3.92;;;2.15;;
51288;SDS011;37372;52.294;5.152;2022-07-23T14:12:51;4.20;;;2.25;;
51288;SDS011;37372;52.294;5.152;2022-07-23T14:15:17;4.38;;;2.00;;
51288;SDS011;37372;52.294;5.152;2022-07-23T14:17:44;3.50;;;1.80;;
51288;SDS011;37372;52.294;5.152;2022-07-23T14:20:11;4.95;;;1.92;;
51288;SDS011;37372;52.294;5.152;2022-07-23T14:22:38;7.60;;;2.00;;
51288;SDS011;37372;52.294;5.152;2022-07-23T14:25:04;4.03;;;2.00;;
51288;SDS011;37372;52.294;5.152;2022-07-23T14:27:30;4.70;;;2.40;;
51288;SDS011;37372;52.294;5.152;2022-07-23T14:29:56;5.70;;;2.05;;
51288;SDS011;37372;52.294;5.152;2022-07-23T14:32:21;4.80;;;2.00;;
51288;SDS011;37372;52.294;5.152;2022-07-23T14:34:47;6.90;;;2.13;;
51288;SDS011;37372;52.294;5.152;2022-07-23T14:37:13;3.08;;;1.85;;
51288;SDS011;37372;52.294;5.152;2022-07-23T14:39:39;3.40;;;1.55;;
51288;SDS011;37372;52.294;5.152;2022-07-23T14:42:06;3.55;;;1.60;;
51288;SDS011;37372;52.294;5.152;2022-07-23T14:44:32;4.90;;;1.58;;
51288;SDS011;37372;52.294;5.152;2022-07-23T14:46:58;4.22;;;1.73;;
51288;SDS011;37372;52.294;5.152;2022-07-23T14:49:24;3.85;;;2.17;;
51288;SDS011;37372;52.294;5.152;2022-07-23T14:51:50;4.72;;;2.15;;
51288;SDS011;37372;52.294;5.152;2022-07-23T14:54:15;3.20;;;1.77;;
51288;SDS011;37372;52.294;5.152;2022-07-23T14:56:41;2.40;;;1.40;;
51288;SDS011;37372;52.294;5.152;2022-07-23T14:59:07;3.70;;;1.98;;
51288;SDS011;37372;52.294;5.152;2022-07-23T15:01:33;2.75;;;1.88;;
51288;SDS011;37372;52.294;5.152;2022-07-23T15:03:59;4.97;;;2.20;;
51288;SDS011;37372;52.294;5.152;2022-07-23T15:06:24;3.72;;;1.73;;
51288;SDS011;37372;52.294;5.152;2022-07-23T15:08:50;3.08;;;1.90;;
51288;SDS011;37372;52.294;5.152;2022-07-23T15:11:16;3.67;;;1.85;;
51288;SDS011;37372;52.294;5.152;2022-07-23T15:13:41;3.38;;;2.05;;
51288;SDS011;37372;52.294;5.152;2022-07-23T15:16:06;4.07;;;2.10;;
51288;SDS011;37372;52.294;5.152;2022-07-23T15:18:32;2.90;;;1.80;;
51288;SDS011;37372;52.294;5.152;2022-07-23T15:20:58;3.47;;;1.95;;
51288;SDS011;37372;52.294;5.152;2022-07-23T15:23:24;4.40;;;2.08;;
51288;SDS011;37372;52.294;5.152;2022-07-23T15:25:49;4.35;;;1.90;;
51288;SDS011;37372;52.294;5.152;2022-07-23T15:28:14;2.90;;;1.75;;
51288;SDS011;37372;52.294;5.152;2022-07-23T15:30:40;2.80;;;1.75;;
51288;SDS011;37372;52.294;5.152;2022-07-23T15:33:05;2.80;;;1.63;;
51288;SDS011;37372;52.294;5.152;2022-07-23T15:35:31;3.97;;;1.80;;
51288;SDS011;37372;52.294;5.152;2022-07-23T15:37:57;2.70;;;1.90;;
51288;SDS011;37372;52.294;5.152;2022-07-23T15:40:22;2.83;;;1.65;;
51288;SDS011;37372;52.294;5.152;2022-07-23T15:42:47;3.17;;;2.03;;
51288;SDS011;37372;52.294;5.152;2022-07-23T15:45:13;5.13;;;2.33;;